Time;durP1;ratioP1;P1;durP2;ratioP2;P2;SDS_P1;SDS_P2;PMS_P1;PMS_P2;Temp;Humidity;BMP_temperature;BMP_pressure;BME280_temperature;BME280_humidity;BME280_pressure;Samples;Min_cycle;Max_cycle;Signal;HPM_P1;HPM_P2
2022/01/05 00:02:12;;;;;;;;;;;;;;;16.98;49.93;99901.09;4985645;28;19922;-49
2022/01/05 00:04:37;;;;;;;;;;;;;;;16.96;49.79;99895.91;4984751;28;19941;-47
2022/01/05 00:07:03;;;;;;;;;;;;;;;16.95;49.76;99886.19;4985144;28;20371;-46
2022/01/05 00:09:28;;;;;;;;;;;;;;;16.94;49.73;99886.34;4985515;28;19922;-46
2022/01/05 00:11:53;;;;;;;;;;;;;;;16.93;49.84;99882.84;4985299;28;19923;-49
2022/01/05 00:14:18;;;;;;;;;;;;;;;16.91;49.59;99887.56;4983973;28;19994;-49
2022/01/05 00:16:43;;;;;;;;;;;;;;;16.91;49.67;99887.56;4985344;28;20461;-49
2022/01/05 00:19:09;;;;;;;;;;;;;;;16.89;49.72;99875.31;4983929;28;19926;-49
2022/01/05 00:21:34;;;;;;;;;;;;;;;16.88;49.73;99865.59;4985470;28;20026;-46
2022/01/05 00:23:59;;;;;;;;;;;;;;;16.86;49.74;99868.44;4984991;28;19918;-49
2022/01/05 00:26:25;;;;;;;;;;;;;;;16.86;49.77;99873.81;4985031;28;19926;-49
2022/01/05 00:28:50;;;;;;;;;;;;;;;16.84;49.76;99881.22;4985253;28;19918;-49
2022/01/05 00:31:15;;;;;;;;;;;;;;;16.84;49.75;99875.88;4984959;28;19922;-47
2022/01/05 00:33:40;;;;;;;;;;;;;;;16.83;49.73;99876.88;4984923;28;19925;-47
2022/01/05 00:36:06;;;;;;;;;;;;;;;16.82;49.77;99880.59;4983991;28;19918;-47
2022/01/05 00:38:31;;;;;;;;;;;;;;;16.82;49.79;99891.34;4985104;28;19918;-50
2022/01/05 00:40:56;;;;;;;;;;;;;;;16.82;49.75;99893.16;4984950;28;19941;-48
2022/01/05 00:43:21;;;;;;;;;;;;;;;16.80;49.89;99887.97;4984808;28;19977;-49
2022/01/05 00:45:46;;;;;;;;;;;;;;;16.79;49.92;99880.13;4984734;28;19925;-48
2022/01/05 00:48:11;;;;;;;;;;;;;;;16.78;49.80;99881.09;4984728;28;19918;-46
2022/01/05 00:50:37;;;;;;;;;;;;;;;16.77;49.81;99887.50;4984016;28;19924;-47
2022/01/05 00:53:02;;;;;;;;;;;;;;;16.74;49.71;99883.34;4984513;28;19976;-46
2022/01/05 00:55:27;;;;;;;;;;;;;;;16.74;49.76;99886.03;4984145;28;19926;-49
2022/01/05 00:57:53;;;;;;;;;;;;;;;16.73;49.75;99887.84;4984712;28;19957;-50
2022/01/05 01:00:18;;;;;;;;;;;;;;;16.72;49.86;99890.69;4983999;28;20363;-46
2022/01/05 01:02:43;;;;;;;;;;;;;;;16.72;49.98;99893.38;4984362;28;19918;-48
2022/01/05 01:05:08;;;;;;;;;;;;;;;16.70;49.79;99884.69;4983510;28;19922;-45
2022/01/05 01:07:33;;;;;;;;;;;;;;;16.69;49.87;99888.34;4984399;28;19922;-49
2022/01/05 01:09:58;;;;;;;;;;;;;;;16.67;49.95;99891.22;4984168;28;20407;-46
2022/01/05 01:12:23;;;;;;;;;;;;;;;16.66;49.78;99900.28;4984413;28;19922;-47
2022/01/05 01:14:49;;;;;;;;;;;;;;;16.65;49.92;99895.09;4983904;28;19994;-50
2022/01/05 01:17:14;;;;;;;;;;;;;;;16.60;49.82;99892.09;4984169;28;19934;-46
2022/01/05 01:19:39;;;;;;;;;;;;;;;16.63;49.82;99908.69;4983104;28;19922;-48
2022/01/05 01:22:04;;;;;;;;;;;;;;;16.63;49.79;99908.69;4984064;28;19973;-49
2022/01/05 01:24:29;;;;;;;;;;;;;;;16.62;49.92;99909.72;4983999;28;19979;-50
2022/01/05 01:26:54;;;;;;;;;;;;;;;16.61;49.88;99905.38;4983854;28;19950;-49
2022/01/05 01:29:20;;;;;;;;;;;;;;;16.59;49.81;99915.44;4982279;28;19918;-45
2022/01/05 01:31:45;;;;;;;;;;;;;;;16.59;49.73;99907.38;4983973;28;19925;-46
2022/01/05 01:34:10;;;;;;;;;;;;;;;16.57;49.88;99909.41;4983314;28;20013;-47
2022/01/05 01:36:35;;;;;;;;;;;;;;;16.57;49.82;99900.53;4983999;28;19946;-46
2022/01/05 01:39:00;;;;;;;;;;;;;;;16.55;49.85;99908.75;4984020;28;19918;-47
2022/01/05 01:41:25;;;;;;;;;;;;;;;16.53;49.86;99900.06;4983794;28;19918;-48
2022/01/05 01:43:51;;;;;;;;;;;;;;;16.53;49.93;99905.41;4983727;28;19961;-49
2022/01/05 01:46:16;;;;;;;;;;;;;;;16.53;49.80;99907.28;4983904;28;20387;-47
2022/01/05 01:48:41;;;;;;;;;;;;;;;16.52;49.94;99908.25;4982264;28;19925;-48
2022/01/05 01:51:07;;;;;;;;;;;;;;;16.50;49.85;99903.09;4981716;28;19925;-52
2022/01/05 01:53:32;;;;;;;;;;;;;;;16.50;49.82;99905.75;4983520;28;19918;-50
2022/01/05 01:55:58;;;;;;;;;;;;;;;16.49;49.96;99909.47;4983511;28;19928;-51
2022/01/05 01:58:23;;;;;;;;;;;;;;;16.48;49.95;99913.13;4983672;28;19918;-49
2022/01/05 02:00:48;;;;;;;;;;;;;;;16.47;49.93;99908.78;5014894;28;19937;-47
2022/01/05 02:03:14;;;;;;;;;;;;;;;16.45;49.94;99908.97;4983349;28;20372;-47
2022/01/05 02:05:39;;;;;;;;;;;;;;;16.45;49.77;99918.88;4982769;28;19929;-44
2022/01/05 02:08:04;;;;;;;;;;;;;;;16.43;49.85;99908.31;4983778;28;19922;-45
2022/01/05 02:10:30;;;;;;;;;;;;;;;16.42;50.01;99903.13;4983258;28;19925;-48
2022/01/05 02:12:55;;;;;;;;;;;;;;;16.42;49.79;99908.50;4983595;28;19922;-48
2022/01/05 02:15:21;;;;;;;;;;;;;;;16.41;49.97;99904.16;4983422;28;19940;-46
2022/01/05 02:17:52;;;;;;;;;;;;;;;16.40;49.91;99906.00;4983637;28;19929;-50
2022/01/05 02:20:19;;;;;;;;;;;;;;;16.40;49.97;99908.69;4982508;28;19954;-47
2022/01/05 02:22:45;;;;;;;;;;;;;;;16.39;49.91;99909.66;4983362;28;19954;-49
2022/01/05 02:25:10;;;;;;;;;;;;;;;16.38;49.88;99907.16;4983321;28;19918;-46
2022/01/05 02:27:37;;;;;;;;;;;;;;;16.36;49.95;99901.16;4983440;28;19925;-46
2022/01/05 02:30:02;;;;;;;;;;;;;;;16.36;49.86;99904.69;4983085;28;19918;-45
2022/01/05 02:32:27;;;;;;;;;;;;;;;16.34;49.85;99904.00;4983446;28;19929;-48
2022/01/05 02:34:53;;;;;;;;;;;;;;;16.33;49.88;99899.66;4980959;28;20000;-49
2022/01/05 02:37:18;;;;;;;;;;;;;;;16.31;49.93;99899.00;4985604;28;19962;-51
2022/01/05 02:39:43;;;;;;;;;;;;;;;16.31;49.93;99899.00;4986905;28;19972;-47
2022/01/05 02:42:08;;;;;;;;;;;;;;;16.31;49.89;99899.00;4987171;28;20284;-48
2022/01/05 02:44:33;;;;;;;;;;;;;;;16.31;49.76;99896.34;4986855;28;19918;-46
2022/01/05 02:47:00;;;;;;;;;;;;;;;16.29;49.79;99898.34;4985585;28;19933;-48
2022/01/05 02:49:25;;;;;;;;;;;;;;;16.29;49.80;99898.34;4986349;28;19922;-50
2022/01/05 02:51:51;;;;;;;;;;;;;;;16.28;49.66;99903.88;4986867;28;19965;-47
2022/01/05 02:54:16;;;;;;;;;;;;;;;16.28;49.62;99903.88;4986958;28;19918;-46
2022/01/05 02:56:41;;;;;;;;;;;;;;;16.26;49.73;99901.38;4986578;28;19981;-50
2022/01/05 02:59:06;;;;;;;;;;;;;;;16.26;49.60;99901.38;4986659;28;19918;-47
2022/01/05 03:01:33;;;;;;;;;;;;;;;16.25;49.66;99897.84;4986643;28;20354;-46
2022/01/05 03:03:58;;;;;;;;;;;;;;;16.24;49.67;99895.34;4985854;28;19917;-46
2022/01/05 03:06:23;;;;;;;;;;;;;;;16.23;49.69;99901.72;4986939;28;19968;-45
2022/01/05 03:08:49;;;;;;;;;;;;;;;16.22;49.55;99903.56;4986674;28;19914;-49
2022/01/05 03:11:14;;;;;;;;;;;;;;;16.21;49.69;99903.75;4980447;28;19924;-49
2022/01/05 03:13:39;;;;;;;;;;;;;;;16.21;49.55;99914.47;4986538;28;19918;-49
2022/01/05 03:16:04;;;;;;;;;;;;;;;16.19;49.56;99914.66;4986279;28;19918;-46
2022/01/05 03:18:29;;;;;;;;;;;;;;;16.18;49.55;99904.94;4986156;28;20355;-49
2022/01/05 03:20:55;;;;;;;;;;;;;;;16.17;49.58;99907.78;4985502;28;19922;-46
2022/01/05 03:23:20;;;;;;;;;;;;;;;16.17;49.51;99908.63;4986534;28;19918;-47
2022/01/05 03:25:45;;;;;;;;;;;;;;;16.16;49.50;99906.94;4986050;28;19922;-48
2022/01/05 03:28:10;;;;;;;;;;;;;;;16.16;49.42;99908.81;4986047;28;19934;-47
2022/01/05 03:30:36;;;;;;;;;;;;;;;16.16;49.52;99915.00;4986084;28;19924;-47
2022/01/05 03:33:15;;;;;;;;;;;;;;;16.15;49.50;99904.47;4986021;28;19929;-47
2022/01/05 03:35:42;;;;;;;;;;;;;;;16.13;49.44;99909.97;4985659;28;19981;-46
2022/01/05 03:38:07;;;;;;;;;;;;;;;16.13;49.44;99914.50;4985864;28;19918;-46
2022/01/05 03:40:34;;;;;;;;;;;;;;;16.12;49.42;99907.47;4986146;28;19942;-46
2022/01/05 03:42:59;;;;;;;;;;;;;;;16.10;49.31;99904.97;4985909;28;19922;-47
2022/01/05 03:45:24;;;;;;;;;;;;;;;16.10;49.42;99921.06;4985768;28;19929;-48
2022/01/05 03:47:49;;;;;;;;;;;;;;;16.09;49.32;99915.84;4985683;28;19918;-49
2022/01/05 03:50:15;;;;;;;;;;;;;;;16.08;49.31;99925.75;4984835;28;20552;-47
2022/01/05 03:52:40;;;;;;;;;;;;;;;16.07;49.34;99932.13;4985913;28;20635;-45
2022/01/05 03:55:05;;;;;;;;;;;;;;;16.07;49.25;99925.94;4985302;28;20370;-48
2022/01/05 03:57:32;;;;;;;;;;;;;;;16.06;49.26;99932.31;4985934;28;19989;-49
2022/01/05 03:59:57;;;;;;;;;;;;;;;16.05;49.28;99925.25;4985644;28;19934;-50
2022/01/05 04:02:22;;;;;;;;;;;;;;;16.05;49.20;99928.78;4985545;28;19918;-47
2022/01/05 04:04:47;;;;;;;;;;;;;;;16.05;49.21;99927.94;4984670;28;19917;-49
2022/01/05 04:07:13;;;;;;;;;;;;;;;16.04;49.08;99937.84;4985483;28;19918;-50
2022/01/05 04:09:38;;;;;;;;;;;;;;;16.03;49.01;99917.41;4985619;28;20405;-52
2022/01/05 04:12:04;;;;;;;;;;;;;;;16.03;49.08;99919.25;4985191;28;19922;-51
2022/01/05 04:14:29;;;;;;;;;;;;;;;16.02;48.95;99933.69;4985136;28;19977;-49
2022/01/05 04:16:54;;;;;;;;;;;;;;;16.03;48.91;99932.66;4985477;28;19925;-50
2022/01/05 04:19:19;;;;;;;;;;;;;;;16.02;48.96;99933.69;4984150;28;19926;-50
2022/01/05 04:21:44;;;;;;;;;;;;;;;16.02;48.97;99931.00;4985300;28;19922;-49
2022/01/05 04:24:10;;;;;;;;;;;;;;;16.00;48.90;99931.97;4983779;28;19914;-48
2022/01/05 04:26:35;;;;;;;;;;;;;;;16.02;48.83;99931.00;4984957;28;19950;-47
2022/01/05 04:29:00;;;;;;;;;;;;;;;16.01;48.83;99932.81;4984927;28;19921;-48
2022/01/05 04:31:25;;;;;;;;;;;;;;;16.01;48.84;99930.13;4984908;28;20024;-49
2022/01/05 04:33:50;;;;;;;;;;;;;;;16.02;48.81;99925.63;4984779;28;19921;-48
2022/01/05 04:36:15;;;;;;;;;;;;;;;16.01;48.75;99927.44;4984272;28;19929;-49
2022/01/05 04:38:40;;;;;;;;;;;;;;;16.02;48.68;99933.69;4984984;28;19957;-46
2022/01/05 04:41:06;;;;;;;;;;;;;;;16.00;48.62;99937.34;4984618;28;19922;-49
2022/01/05 04:43:31;;;;;;;;;;;;;;;16.01;48.68;99930.13;4983406;28;19918;-46
2022/01/05 04:45:56;;;;;;;;;;;;;;;16.00;48.67;99926.63;4984654;28;19918;-48
2022/01/05 04:48:21;;;;;;;;;;;;;;;16.01;48.54;99927.44;4984581;28;19968;-48
2022/01/05 04:50:46;;;;;;;;;;;;;;;16.02;48.50;99934.50;4983851;28;19925;-47
2022/01/05 04:53:13;;;;;;;;;;;;;;;16.03;48.47;99935.34;4984587;28;19929;-43
2022/01/05 04:55:41;;;;;;;;;;;;;;;16.03;48.47;99938.84;4984655;28;19953;-50
2022/01/05 04:58:07;;;;;;;;;;;;;;;16.03;48.40;99940.69;4984742;28;19938;-48
2022/01/05 05:00:32;;;;;;;;;;;;;;;16.04;48.26;99937.00;4983740;28;19918;-47
2022/01/05 05:02:57;;;;;;;;;;;;;;;16.03;48.22;99944.22;4984485;28;19925;-48
2022/01/05 05:05:22;;;;;;;;;;;;;;;16.04;48.14;99943.19;4983704;28;19914;-45
2022/01/05 05:07:47;;;;;;;;;;;;;;;16.05;48.26;99944.84;4984618;28;19953;-48
2022/01/05 05:10:12;;;;;;;;;;;;;;;16.06;48.16;99948.41;4984318;28;19941;-49
2022/01/05 05:12:38;;;;;;;;;;;;;;;16.06;48.11;99951.09;4984133;28;19976;-48
2022/01/05 05:15:03;;;;;;;;;;;;;;;16.05;48.07;99947.53;4984036;28;19918;-47
2022/01/05 05:17:28;;;;;;;;;;;;;;;16.06;48.12;99951.91;4984447;28;19986;-49
2022/01/05 05:19:53;;;;;;;;;;;;;;;16.06;48.02;99949.25;4983111;28;19922;-49
2022/01/05 05:22:18;;;;;;;;;;;;;;;16.06;48.11;99948.41;5015702;28;19966;-47
2022/01/05 05:24:44;;;;;;;;;;;;;;;16.07;47.95;99944.72;4983776;28;19925;-50
2022/01/05 05:27:09;;;;;;;;;;;;;;;16.07;47.99;99950.06;4984190;28;19929;-48
2022/01/05 05:29:34;;;;;;;;;;;;;;;16.07;47.89;99944.72;4984055;28;19925;-48
2022/01/05 05:31:59;;;;;;;;;;;;;;;16.07;47.70;99944.72;4984206;28;19922;-45
2022/01/05 05:34:25;;;;;;;;;;;;;;;16.07;47.86;99936.66;4983197;28;19918;-49
2022/01/05 05:36:50;;;;;;;;;;;;;;;16.07;47.76;99936.66;4984354;28;19918;-47
2022/01/05 05:39:15;;;;;;;;;;;;;;;16.08;47.69;99930.28;4984176;28;19922;-49
2022/01/05 05:41:40;;;;;;;;;;;;;;;16.08;47.69;99928.44;5015332;28;19922;-47
2022/01/05 05:44:05;;;;;;;;;;;;;;;16.08;47.57;99927.59;4983638;28;19938;-46
2022/01/05 05:46:31;;;;;;;;;;;;;;;16.09;47.67;99943.50;4983884;28;19924;-43
2022/01/05 05:48:56;;;;;;;;;;;;;;;16.08;47.48;99928.44;4983294;28;19918;-46
2022/01/05 05:51:21;;;;;;;;;;;;;;;16.08;47.48;99930.28;4983521;28;19980;-46
2022/01/05 05:53:46;;;;;;;;;;;;;;;16.10;47.50;99928.25;4983626;28;19925;-49
2022/01/05 05:56:11;;;;;;;;;;;;;;;16.08;47.48;99931.13;4983269;28;19925;-48
2022/01/05 05:58:36;;;;;;;;;;;;;;;16.09;47.41;99926.59;4983801;28;19925;-49
2022/01/05 06:01:01;;;;;;;;;;;;;;;16.10;47.39;99929.13;4983572;28;19918;-47
2022/01/05 06:03:27;;;;;;;;;;;;;;;16.10;47.32;99936.28;4983407;28;19918;-52
2022/01/05 06:05:52;;;;;;;;;;;;;;;16.12;47.36;99947.69;4979804;28;19933;-50
2022/01/05 06:08:17;;;;;;;;;;;;;;;16.13;47.54;99933.28;4983709;28;20025;-49
2022/01/05 06:10:42;;;;;;;;;;;;;;;16.14;47.30;99924.22;4982600;28;19920;-47
2022/01/05 06:13:07;;;;;;;;;;;;;;;16.14;47.26;99927.75;4986680;28;19933;-50
2022/01/05 06:15:32;;;;;;;;;;;;;;;16.15;47.29;99915.19;4985685;28;19965;-46
2022/01/05 06:17:58;;;;;;;;;;;;;;;16.15;47.24;99913.34;4987015;28;19918;-46
2022/01/05 06:20:23;;;;;;;;;;;;;;;16.15;47.17;99913.34;4985921;28;20642;-46
2022/01/05 06:22:48;;;;;;;;;;;;;;;16.15;47.24;99921.38;4986316;28;19925;-49
2022/01/05 06:25:13;;;;;;;;;;;;;;;16.15;47.46;99918.69;4986705;28;19918;-45
2022/01/05 06:27:38;;;;;;;;;;;;;;;16.15;47.33;99907.97;4987447;28;19921;-45
2022/01/05 06:30:06;;;;;;;;;;;;;;;16.15;47.31;99915.19;4987017;28;20851;-46
2022/01/05 06:32:33;;;;;;;;;;;;;;;16.15;47.46;99916.00;4986305;28;19918;-44
2022/01/05 06:34:59;;;;;;;;;;;;;;;16.16;47.44;99933.78;4986370;28;20013;-47
2022/01/05 06:37:24;;;;;;;;;;;;;;;16.17;47.55;99927.38;4987287;28;19922;-46
2022/01/05 06:39:49;;;;;;;;;;;;;;;16.18;47.51;99915.66;4986087;28;19929;-47
2022/01/05 06:42:14;;;;;;;;;;;;;;;16.19;47.50;99917.34;4986557;28;19945;-46
2022/01/05 06:44:39;;;;;;;;;;;;;;;16.21;47.59;99928.72;4986311;28;19930;-44
2022/01/05 06:47:04;;;;;;;;;;;;;;;16.22;47.62;99921.50;4986552;28;19929;-46
2022/01/05 06:49:30;;;;;;;;;;;;;;;16.22;47.53;99934.91;4985567;28;19918;-46
2022/01/05 06:51:55;;;;;;;;;;;;;;;16.24;47.48;99944.47;4986324;28;20050;-47
2022/01/05 06:54:20;;;;;;;;;;;;;;;16.24;47.51;99943.63;4985772;28;19925;-44
2022/01/05 06:56:46;;;;;;;;;;;;;;;16.25;47.53;99951.50;4985954;28;19925;-44
2022/01/05 06:59:12;;;;;;;;;;;;;;;16.26;47.65;99949.63;4986742;28;19956;-46
2022/01/05 07:01:37;;;;;;;;;;;;;;;16.27;47.58;99956.69;4986531;28;19922;-45
2022/01/05 07:04:02;;;;;;;;;;;;;;;16.28;47.59;99960.22;4985716;28;19949;-45
2022/01/05 07:06:27;;;;;;;;;;;;;;;16.29;47.45;99951.16;4986490;28;19915;-43
2022/01/05 07:08:52;;;;;;;;;;;;;;;16.29;47.55;99954.66;4986597;28;19946;-48
2022/01/05 07:11:18;;;;;;;;;;;;;;;16.30;47.39;99947.44;4986347;28;19949;-47
2022/01/05 07:13:43;;;;;;;;;;;;;;;16.30;47.45;99936.72;4986340;28;19937;-43
2022/01/05 07:16:08;;;;;;;;;;;;;;;16.32;47.44;99942.75;4986457;28;20013;-47
2022/01/05 07:18:33;;;;;;;;;;;;;;;16.33;47.34;99944.44;4986320;28;19961;-43
2022/01/05 07:20:58;;;;;;;;;;;;;;;16.33;47.35;99950.63;4985494;28;20387;-45
2022/01/05 07:23:24;;;;;;;;;;;;;;;16.35;47.49;99956.63;4984237;28;19921;-45
2022/01/05 07:25:49;;;;;;;;;;;;;;;16.38;47.56;99958.97;4986111;28;19918;-47
2022/01/05 07:28:14;;;;;;;;;;;;;;;16.40;47.37;99948.91;4986091;28;19922;-47
2022/01/05 07:30:39;;;;;;;;;;;;;;;16.44;47.34;99950.25;4986564;28;19969;-48
2022/01/05 07:33:04;;;;;;;;;;;;;;;16.48;47.05;99951.56;4986378;28;19918;-48
2022/01/05 07:35:29;;;;;;;;;;;;;;;16.52;47.22;99953.88;4985327;28;19969;-47
2022/01/05 07:37:54;;;;;;;;;;;;;;;16.54;46.94;99946.50;4986499;28;19938;-44
2022/01/05 07:40:20;;;;;;;;;;;;;;;16.57;46.98;99940.78;4986256;28;19940;-49
2022/01/05 07:42:45;;;;;;;;;;;;;;;16.59;46.89;99950.31;4985666;28;19925;-45
2022/01/05 07:45:10;;;;;;;;;;;;;;;16.61;46.81;99947.44;4978972;28;19965;-43
2022/01/05 07:47:35;;;;;;;;;;;;;;;16.62;46.73;99941.91;4982498;28;19921;-45
2022/01/05 07:50:00;;;;;;;;;;;;;;;16.64;46.87;99952.47;4983312;28;19974;-48
2022/01/05 07:52:26;;;;;;;;;;;;;;;16.66;46.70;99958.50;4983656;28;19929;-45
2022/01/05 07:54:52;;;;;;;;;;;;;;;16.68;46.68;99959.16;4984128;28;19918;-44
2022/01/05 07:57:17;;;;;;;;;;;;;;;16.70;46.71;99981.31;4984294;28;19921;-46
2022/01/05 07:59:42;;;;;;;;;;;;;;;16.71;46.68;99980.28;4983452;28;19914;-52
2022/01/05 08:02:07;;;;;;;;;;;;;;;16.73;46.65;99967.53;4982933;28;19918;-47
2022/01/05 08:04:33;;;;;;;;;;;;;;;16.75;46.69;99978.94;4983189;28;19920;-49
2022/01/05 08:06:58;;;;;;;;;;;;;;;16.77;46.88;99984.13;4984171;28;20338;-51
2022/01/05 08:09:23;;;;;;;;;;;;;;;16.77;46.68;99976.91;4983239;28;19922;-48
2022/01/05 08:11:48;;;;;;;;;;;;;;;16.78;46.73;99986.66;4982600;28;20088;-51
2022/01/05 08:14:13;;;;;;;;;;;;;;;16.81;46.60;99994.34;4983145;28;19918;-44
2022/01/05 08:16:39;;;;;;;;;;;;;;;16.81;46.72;99986.28;4983942;28;19926;-44
2022/01/05 08:19:04;;;;;;;;;;;;;;;16.84;46.50;99985.09;4982933;28;19999;-48
2022/01/05 08:21:29;;;;;;;;;;;;;;;16.85;46.45;99990.28;4982126;28;19944;-45
2022/01/05 08:23:54;;;;;;;;;;;;;;;16.87;46.47;99982.91;4983921;28;19922;-42
2022/01/05 08:26:20;;;;;;;;;;;;;;;16.88;46.30;99981.88;4981932;28;19925;-48
2022/01/05 08:28:45;;;;;;;;;;;;;;;16.90;46.34;99984.38;4983346;28;19914;-44
2022/01/05 08:31:10;;;;;;;;;;;;;;;16.91;46.37;99983.38;4982593;28;19914;-43
2022/01/05 08:33:35;;;;;;;;;;;;;;;16.92;46.21;99995.78;4982633;28;19920;-46
2022/01/05 08:36:02;;;;;;;;;;;;;;;16.93;46.25;99984.84;4981605;28;19922;-50
2022/01/05 08:38:27;;;;;;;;;;;;;;;16.94;46.08;99988.38;4983594;28;19937;-46
2022/01/05 08:40:52;;;;;;;;;;;;;;;16.94;46.00;99991.06;4982194;28;19914;-45
2022/01/05 08:43:17;;;;;;;;;;;;;;;16.95;46.10;99990.06;4982613;28;19917;-46
2022/01/05 08:45:43;;;;;;;;;;;;;;;16.95;46.25;99988.22;4982650;28;19941;-44
2022/01/05 08:48:10;;;;;;;;;;;;;;;16.96;46.09;99991.75;4983278;28;19914;-47
2022/01/05 08:50:35;;;;;;;;;;;;;;;16.97;46.03;99996.09;4981753;28;19918;-44
2022/01/05 08:53:01;;;;;;;;;;;;;;;16.98;46.15;100006.63;4982602;28;19918;-40
2022/01/05 08:55:27;;;;;;;;;;;;;;;16.99;46.02;100013.72;4982788;28;19929;-49
2022/01/05 08:57:53;;;;;;;;;;;;;;;17.00;46.00;100009.16;4983010;28;19918;-46
2022/01/05 09:00:18;;;;;;;;;;;;;;;17.01;46.17;100023.44;4982611;28;20422;-46
2022/01/05 09:02:43;;;;;;;;;;;;;;;17.02;45.97;100036.66;4981916;28;20030;-46
2022/01/05 09:05:09;;;;;;;;;;;;;;;17.03;45.85;100032.97;4981521;28;19981;-46
2022/01/05 09:07:34;;;;;;;;;;;;;;;17.04;45.95;100029.28;4981617;28;19921;-43
2022/01/05 09:09:59;;;;;;;;;;;;;;;17.05;46.02;100025.56;4981591;28;19918;-46
2022/01/05 09:12:24;;;;;;;;;;;;;;;17.07;45.88;100033.44;4981819;28;19926;-45
2022/01/05 09:14:49;;;;;;;;;;;;;;;17.08;46.09;100027.91;4982522;28;20298;-46
2022/01/05 09:17:15;;;;;;;;;;;;;;;17.09;46.06;100032.25;4982735;28;19922;-46
2022/01/05 09:19:40;;;;;;;;;;;;;;;17.11;45.91;100034.75;4981437;28;20068;-43
2022/01/05 09:22:05;;;;;;;;;;;;;;;17.11;45.83;100032.91;4981783;28;19914;-51
2022/01/05 09:24:32;;;;;;;;;;;;;;;17.14;45.93;100031.72;4982621;28;19925;-47
2022/01/05 09:27:02;;;;;;;;;;;;;;;17.16;45.77;100033.22;4982499;28;19929;-48
2022/01/05 09:29:27;;;;;;;;;;;;;;;17.17;45.64;100037.59;4978991;28;19979;-40
2022/01/05 09:31:53;;;;;;;;;;;;;;;17.19;45.65;100050.81;4981536;28;19957;-45
2022/01/05 09:34:18;;;;;;;;;;;;;;;17.20;45.73;100058.72;4981385;28;19914;-47
2022/01/05 09:36:48;;;;;;;;;;;;;;;17.20;45.74;100053.34;4981673;28;19925;-47
2022/01/05 09:41:58;;;;;;;;;;;;;;;17.20;45.46;100069.47;4981805;28;19976;-48
2022/01/05 09:44:28;;;;;;;;;;;;;;;17.22;45.62;100072.81;4981516;28;19926;-45
2022/01/05 09:47:17;;;;;;;;;;;;;;;17.23;45.59;100074.47;4981460;28;20008;-45
2022/01/05 09:49:48;;;;;;;;;;;;;;;17.26;45.47;100065.22;4978698;28;19956;-49
2022/01/05 09:52:13;;;;;;;;;;;;;;;17.27;45.39;100068.75;4982546;28;19918;-48
2022/01/05 09:54:42;;;;;;;;;;;;;;;17.27;45.23;100064.22;4984105;28;20350;-45
2022/01/05 09:57:11;;;;;;;;;;;;;;;17.27;45.18;100080.31;4984093;28;19980;-47
2022/01/05 09:59:36;;;;;;;;;;;;;;;17.27;45.21;100101.81;4984097;28;19957;-50
2022/01/05 10:02:02;;;;;;;;;;;;;;;17.27;45.04;100107.19;4983928;28;20469;-46
2022/01/05 10:04:27;;;;;;;;;;;;;;;17.27;44.97;100103.66;4981982;28;19914;-49
2022/01/05 10:06:53;;;;;;;;;;;;;;;17.28;44.99;100110.72;4982449;28;19965;-48
2022/01/05 10:09:18;;;;;;;;;;;;;;;17.28;44.91;100114.22;4972179;28;19918;-45
2022/01/05 10:11:43;;;;;;;;;;;;;;;17.27;45.19;100115.25;4962682;28;19924;-50
2022/01/05 10:14:11;;;;;;;;;;;;;;;17.29;45.29;100107.88;4981195;28;19922;-45
2022/01/05 10:16:37;;;;;;;;;;;;;;;17.30;45.29;100114.91;4979574;28;20004;-47
2022/01/05 10:19:02;;;;;;;;;;;;;;;17.32;45.33;100114.72;4980523;28;20406;-47
2022/01/05 10:21:34;;;;;;;;;;;;;;;17.33;45.35;100116.38;4981596;28;19914;-46
2022/01/05 10:23:59;;;;;;;;;;;;;;;17.34;45.44;100118.91;4978771;28;19969;-44
2022/01/05 10:26:26;;;;;;;;;;;;;;;17.34;45.39;100132.34;4981409;28;19925;-45
2022/01/05 10:28:58;;;;;;;;;;;;;;;17.35;45.40;100128.63;4979564;28;21424;-48
2022/01/05 10:31:24;;;;;;;;;;;;;;;17.35;45.44;100131.31;4981471;28;19960;-47
2022/01/05 10:33:50;;;;;;;;;;;;;;;17.34;45.29;100126.97;4980518;28;20407;-49
2022/01/05 10:36:15;;;;;;;;;;;;;;;17.35;45.34;100134.00;4981080;28;19925;-44
2022/01/05 10:38:53;;;;;;;;;;;;;;;17.35;45.47;100136.69;4980630;28;19929;-45
2022/01/05 10:41:19;;;;;;;;;;;;;;;17.36;45.31;100162.53;4980727;28;19918;-45
2022/01/05 10:44:03;;;;;;;;;;;;;;;17.37;45.54;100149.94;4981727;28;19920;-46
2022/01/05 10:46:35;;;;;;;;;;;;;;;17.37;45.44;100140.03;4980339;28;19922;-48
2022/01/05 10:49:00;;;;;;;;;;;;;;;17.38;45.38;100143.59;4977591;28;19918;-47
2022/01/05 10:51:29;;;;;;;;;;;;;;;17.41;45.55;100151.25;4980421;28;19961;-43
2022/01/05 10:54:08;;;;;;;;;;;;;;;17.43;45.46;100155.47;4980288;28;19922;-40
2022/01/05 10:56:33;;;;;;;;;;;;;;;17.45;45.46;100158.78;4979764;28;19914;-49
2022/01/05 10:58:58;;;;;;;;;;;;;;;17.47;45.14;100172.91;4984516;28;20494;-50
2022/01/05 11:01:29;;;;;;;;;;;;;;;17.49;45.08;100156.59;4984146;28;19918;-49
2022/01/05 11:03:54;;;;;;;;;;;;;;;17.51;45.11;100165.34;4984429;28;19915;-43
2022/01/05 11:06:20;;;;;;;;;;;;;;;17.54;45.28;100167.66;4984846;28;19925;-50
2022/01/05 11:08:46;;;;;;;;;;;;;;;17.57;45.26;100155.72;4984983;28;20024;-49
2022/01/05 11:11:31;;;;;;;;;;;;;;;17.61;45.21;100170.47;4983979;28;20390;-47
2022/01/05 11:13:56;;;;;;;;;;;;;;;17.64;44.91;100178.19;4984717;28;20009;-48
2022/01/05 11:16:25;;;;;;;;;;;;;;;17.65;44.88;100178.00;4966575;28;19926;-44
2022/01/05 11:18:50;;;;;;;;;;;;;;;17.65;44.97;100182.53;4984151;28;19933;-45
2022/01/05 11:21:18;;;;;;;;;;;;;;;17.65;45.11;100180.69;4983666;28;19965;-43
2022/01/05 11:23:43;;;;;;;;;;;;;;;17.65;44.88;100196.81;4984994;28;19985;-48
2022/01/05 11:26:08;;;;;;;;;;;;;;;17.65;44.92;100204.88;4967039;28;19925;-46
2022/01/05 11:28:33;;;;;;;;;;;;;;;17.65;44.97;100195.97;4984477;28;19917;-47
2022/01/05 11:30:59;;;;;;;;;;;;;;;17.63;45.15;100215.00;4984598;28;19945;-45
2022/01/05 11:33:24;;;;;;;;;;;;;;;17.64;45.17;100229.25;4984585;28;20699;-48
2022/01/05 11:35:49;;;;;;;;;;;;;;;17.63;45.18;100223.06;4982456;28;20383;-45
2022/01/05 11:38:15;;;;;;;;;;;;;;;17.64;45.23;100235.47;4983103;28;19929;-45
2022/01/05 11:40:45;;;;;;;;;;;;;;;17.64;45.25;100231.94;4983488;28;19914;-46
2022/01/05 11:43:16;;;;;;;;;;;;;;;17.64;45.23;100238.16;4982266;28;19926;-46
2022/01/05 11:45:45;;;;;;;;;;;;;;;17.65;45.27;100228.25;4983952;28;20008;-48
2022/01/05 11:48:17;;;;;;;;;;;;;;;17.66;45.25;100251.41;4982390;28;19918;-47
2022/01/05 11:50:43;;;;;;;;;;;;;;;17.68;45.16;100244.03;4982960;28;19921;-43
2022/01/05 11:53:08;;;;;;;;;;;;;;;17.70;45.37;100241.97;4983596;28;19949;-46
2022/01/05 11:55:55;;;;;;;;;;;;;;;17.74;45.30;100236.09;4983491;28;20375;-45
2022/01/05 11:58:21;;;;;;;;;;;;;;;17.78;45.42;100231.22;4982233;28;19918;-44
2022/01/05 12:00:48;;;;;;;;;;;;;;;17.83;45.25;100242.28;4983077;28;19925;-46
2022/01/05 12:03:13;;;;;;;;;;;;;;;17.77;45.18;100220.66;4983681;28;19981;-45
2022/01/05 12:05:57;;;;;;;;;;;;;;;17.91;45.13;100233.31;4983038;28;19918;-45
2022/01/05 12:08:38;;;;;;;;;;;;;;;17.96;45.16;100237.13;4983556;28;20015;-46
2022/01/05 12:11:04;;;;;;;;;;;;;;;17.99;44.96;100236.78;4980949;28;19914;-46
2022/01/05 12:13:35;;;;;;;;;;;;;;;18.01;45.11;100238.44;4982499;28;19929;-47
2022/01/05 12:16:00;;;;;;;;;;;;;;;18.01;44.92;100251.91;4983026;28;19918;-45
2022/01/05 12:18:26;;;;;;;;;;;;;;;18.01;45.16;100270.72;4983348;28;20829;-47
2022/01/05 12:20:52;;;;;;;;;;;;;;;18.00;45.17;100288.72;4982714;28;19950;-45
2022/01/05 12:23:25;;;;;;;;;;;;;;;17.99;45.30;100279.81;4983537;28;19918;-46
2022/01/05 12:26:07;;;;;;;;;;;;;;;18.00;45.18;100294.09;4983044;28;19922;-43
2022/01/05 12:28:48;;;;;;;;;;;;;;;18.00;45.18;100288.72;4983605;28;20006;-43
2022/01/05 12:31:14;;;;;;;;;;;;;;;18.01;45.41;100287.72;4981440;28;19965;-51
2022/01/05 12:33:48;;;;;;;;;;;;;;;18.05;45.47;100280.13;4983372;28;20461;-47
2022/01/05 12:36:16;;;;;;;;;;;;;;;18.09;45.26;100284.97;4982772;28;19918;-49
2022/01/05 12:38:51;;;;;;;;;;;;;;;18.10;45.51;100285.81;4981786;28;19922;-45
2022/01/05 12:41:24;;;;;;;;;;;;;;;18.12;45.41;100295.38;4982552;28;19938;-46